Time;durP1;ratioP1;P1;durP2;ratioP2;P2;SDS_P1;SDS_P2;PMS_P1;PMS_P2;Temp;Humidity;BMP_temperature;BMP_pressure;BME280_temperature;BME280_humidity;BME280_pressure;Samples;Min_cycle;Max_cycle;Signal;HPM_P1;HPM_P2
2022/01/14 00:01:29;;;;;;;48.13;11.93;;;2.50;1.00;;;;;;5068641;28;20381;-74
2022/01/14 00:03:54;;;;;;;27.70;11.83;;;2.40;1.00;;;;;;5059485;28;20175;-75
2022/01/14 00:06:33;;;;;;;29.70;11.10;;;2.40;1.00;;;;;;5062338;28;20172;-74
2022/01/14 00:09:10;;;;;;;29.42;11.07;;;2.50;1.00;;;;;;5056884;28;20230;-74
2022/01/14 00:11:44;;;;;;;34.20;11.40;;;2.50;1.00;;;;;;5065547;28;20269;-74
2022/01/14 00:16:42;;;;;;;51.88;10.45;;;2.50;1.00;;;;;;5061983;28;20191;-77
2022/01/14 00:19:08;;;;;;;36.47;9.75;;;2.50;1.00;;;;;;5047858;28;20187;-77
2022/01/14 00:21:41;;;;;;;36.13;9.97;;;2.40;1.00;;;;;;5060901;28;20249;-77
2022/01/14 00:24:25;;;;;;;29.17;10.90;;;2.40;1.00;;;;;;5062120;28;20527;-77
2022/01/14 00:33:00;;;;;;;23.65;10.30;;;2.40;1.00;;;;;;5056702;28;20232;-77
2022/01/14 00:35:35;;;;;;;30.23;10.65;;;2.30;1.00;;;;;;5060984;28;20630;-77
2022/01/14 00:38:01;;;;;;;25.42;9.45;;;2.30;1.00;;;;;;5053091;28;20222;-77
2022/01/14 00:40:27;;;;;;;47.22;11.13;;;2.40;1.00;;;;;;5066801;28;20180;-76
2022/01/14 00:42:53;;;;;;;48.38;9.07;;;2.20;1.00;;;;;;5081718;28;20215;-77
2022/01/14 00:45:20;;;;;;;21.33;9.90;;;2.20;1.00;;;;;;5056881;28;20187;-75
2022/01/14 00:47:59;;;;;;;23.58;10.30;;;2.20;1.00;;;;;;5053866;28;20599;-74
2022/01/14 00:50:27;;;;;;;23.23;10.20;;;2.20;1.00;;;;;;5049243;28;20174;-74
2022/01/14 00:52:57;;;;;;;33.50;11.05;;;2.20;1.00;;;;;;5060196;28;20824;-75
2022/01/14 00:55:28;;;;;;;26.95;10.88;;;;;;;;;;5073116;28;20201;-74
2022/01/14 01:00:30;;;;;;;43.50;10.02;;;2.20;1.00;;;;;;5069796;28;20207;-75
2022/01/14 01:02:56;;;;;;;28.45;11.32;;;2.20;1.00;;;;;;5055351;28;20282;-75
2022/01/14 01:05:28;;;;;;;80.97;10.97;;;2.20;1.00;;;;;;5053671;28;20196;-74
2022/01/14 01:08:04;;;;;;;37.25;9.30;;;2.30;1.00;;;;;;5065603;28;20501;-74
2022/01/14 01:10:34;;;;;;;35.33;10.05;;;2.20;1.00;;;;;;5062818;28;20653;-74
2022/01/14 01:13:27;;;;;;;36.78;11.15;;;2.20;1.00;;;;;;5046847;28;20288;-74
2022/01/14 01:15:54;;;;;;;36.15;9.43;;;2.20;1.00;;;;;;5060505;28;20175;-74
2022/01/14 01:18:21;;;;;;;41.20;9.32;;;2.20;1.00;;;;;;5063054;28;20179;-74
2022/01/14 01:20:47;;;;;;;16.50;8.82;;;2.30;1.00;;;;;;5057154;28;20270;-74
2022/01/14 01:23:13;;;;;;;34.97;10.63;;;2.30;1.00;;;;;;5070442;28;20551;-74
2022/01/14 01:26:25;;;;;;;23.87;9.73;;;2.30;1.00;;;;;;5056307;28;20184;-75
2022/01/14 01:29:28;;;;;;;26.42;9.45;;;2.20;1.00;;;;;;5063358;28;20449;-74
2022/01/14 01:31:50;;;;;;;17.77;9.43;;;2.20;1.00;;;;;;5066808;28;20191;-74
2022/01/14 01:34:20;;;;;;;24.40;8.05;;;2.20;1.00;;;;;;5054975;28;20168;-74
2022/01/14 01:36:49;;;;;;;34.28;9.40;;;2.20;1.00;;;;;;5066305;28;20183;-74
2022/01/14 01:39:31;;;;;;;26.20;9.40;;;2.20;1.00;;;;;;5060239;28;20183;-74
2022/01/14 01:42:00;;;;;;;41.85;9.52;;;2.10;1.00;;;;;;5063018;28;20191;-75
2022/01/14 01:44:35;;;;;;;37.42;9.05;;;2.20;1.00;;;;;;5061734;28;20172;-74
2022/01/14 01:47:01;;;;;;;19.30;8.75;;;2.10;1.00;;;;;;5066807;28;20171;-74
2022/01/14 01:49:33;;;;;;;32.40;9.57;;;2.10;1.00;;;;;;5053292;28;20247;-74
2022/01/14 01:51:59;;;;;;;27.33;9.07;;;2.10;1.00;;;;;;5069153;28;20175;-74
2022/01/14 01:54:26;;;;;;;29.00;10.70;;;2.20;1.00;;;;;;5065846;28;20220;-75
2022/01/14 01:56:52;;;;;;;90.40;12.75;;;2.20;1.00;;;;;;5059530;28;20534;-74
2022/01/14 01:59:20;;;;;;;20.93;9.47;;;2.10;1.00;;;;;;5066901;28;20183;-74
2022/01/14 02:01:52;;;;;;;31.85;10.50;;;2.10;1.00;;;;;;5058828;28;20975;-77
2022/01/14 02:04:21;;;;;;;29.85;10.02;;;2.20;1.00;;;;;;5065649;28;20700;-77
2022/01/14 02:06:53;;;;;;;42.42;9.10;;;2.20;1.00;;;;;;5054137;28;20255;-77
2022/01/14 02:09:33;;;;;;;58.13;8.55;;;2.20;1.00;;;;;;5066773;28;20274;-77
2022/01/14 02:11:59;;;;;;;75.40;10.70;;;2.20;1.00;;;;;;5040093;28;20167;-77
2022/01/14 02:14:39;;;;;;;21.33;8.57;;;2.10;1.00;;;;;;5062272;28;20183;-77
2022/01/14 02:22:51;;;;;;;21.38;9.18;;;2.10;1.00;;;;;;5063299;28;20221;-77
2022/01/14 02:25:30;;;;;;;18.98;8.70;;;2.10;1.00;;;;;;5066975;28;20171;-77
2022/01/14 02:28:07;;;;;;;26.67;9.00;;;2.10;1.00;;;;;;5068333;28;20175;-77
2022/01/14 02:30:38;;;;;;;20.33;8.35;;;2.10;1.00;;;;;;5039077;28;20180;-75
2022/01/14 02:33:04;;;;;;;58.55;10.13;;;2.10;1.00;;;;;;5053006;28;20198;-75
2022/01/14 02:35:30;;;;;;;32.03;9.53;;;2.10;1.00;;;;;;5076323;28;20164;-74
2022/01/14 02:38:10;;;;;;;21.00;9.00;;;2.10;1.00;;;;;;5054896;28;20588;-74
2022/01/14 02:40:40;;;;;;;20.85;9.00;;;2.20;1.00;;;;;;5056185;28;20174;-74
2022/01/14 02:43:16;;;;;;;18.40;8.52;;;2.20;1.00;;;;;;5065517;28;20194;-74
2022/01/14 02:45:55;;;;;;;23.55;9.50;;;2.10;1.00;;;;;;5075879;28;20174;-76
2022/01/14 02:48:29;;;;;;;44.80;9.45;;;2.10;1.00;;;;;;5063736;28;20176;-74
2022/01/14 02:51:00;;;;;;;16.85;8.95;;;2.10;1.00;;;;;;5065712;28;20545;-74
2022/01/14 02:56:05;;;;;;;22.95;10.05;;;2.20;1.00;;;;;;5067026;28;20191;-74
2022/01/14 02:58:51;;;;;;;28.20;8.32;;;2.10;1.00;;;;;;5058621;28;20191;-74
2022/01/14 03:01:21;;;;;;;28.05;9.13;;;2.00;1.00;;;;;;5076235;28;20182;-74
2022/01/14 03:03:53;;;;;;;16.00;8.95;;;2.10;1.00;;;;;;5062210;28;20649;-74
2022/01/14 03:06:19;;;;;;;34.35;9.85;;;2.00;1.00;;;;;;5062136;28;20203;-74
2022/01/14 03:08:45;;;;;;;19.77;9.40;;;2.00;1.00;;;;;;5069232;28;20183;-74
2022/01/14 03:11:22;;;;;;;17.38;8.88;;;2.00;1.00;;;;;;5060548;28;21882;-75
2022/01/14 03:13:51;;;;;;;24.13;8.30;;;2.00;1.00;;;;;;5056165;28;20236;-74
2022/01/14 03:16:21;;;;;;;21.23;9.00;;;2.00;1.00;;;;;;5069442;28;20186;-77
2022/01/14 03:18:54;;;;;;;18.85;8.88;;;2.00;1.00;;;;;;5055394;28;20199;-77
2022/01/14 03:21:29;;;;;;;17.10;8.60;;;2.00;1.00;;;;;;5069042;28;20505;-77
2022/01/14 03:26:52;;;;;;;36.00;8.57;;;2.00;1.00;;;;;;5064956;28;20189;-77
2022/01/14 03:29:19;;;;;;;41.67;9.20;;;2.00;1.00;;;;;;5062239;28;20174;-77
2022/01/14 03:31:46;;;;;;;17.80;8.15;;;2.00;1.00;;;;;;5063295;28;20182;-75
2022/01/14 03:34:13;;;;;;;17.30;8.32;;;2.00;1.00;;;;;;5069996;28;20236;-74
2022/01/14 03:36:39;;;;;;;25.02;7.03;;;2.00;1.00;;;;;;5062635;28;20191;-74
2022/01/14 03:39:05;;;;;;;18.23;6.80;;;1.90;1.00;;;;;;5072730;28;20179;-74
2022/01/14 03:41:31;;;;;;;23.30;8.95;;;1.90;1.00;;;;;;5067676;28;20211;-74
2022/01/14 03:43:57;;;;;;;30.60;8.45;;;1.90;1.00;;;;;;5061040;28;20179;-74
2022/01/14 03:46:23;;;;;;;15.35;8.15;;;1.90;1.00;;;;;;5048065;28;20168;-76
2022/01/14 03:48:54;;;;;;;13.73;7.60;;;1.70;1.00;;;;;;5067776;28;20586;-77
2022/01/14 03:51:23;;;;;;;16.65;7.13;;;1.80;1.00;;;;;;5054738;28;20247;-77
2022/01/14 03:53:54;;;;;;;12.95;7.40;;;1.80;1.00;;;;;;5048575;28;20215;-77
2022/01/14 03:56:27;;;;;;;13.93;7.60;;;1.80;1.00;;;;;;5074108;28;20264;-77
2022/01/14 03:59:09;;;;;;;18.55;7.80;;;1.70;1.00;;;;;;5062948;28;20213;-77
2022/01/14 04:01:45;;;;;;;16.27;7.05;;;1.70;1.00;;;;;;5061404;28;20198;-77
2022/01/14 04:04:21;;;;;;;18.65;7.00;;;1.70;1.00;;;;;;5066465;28;20695;-77
2022/01/14 04:06:51;;;;;;;26.75;9.07;;;1.80;1.00;;;;;;5067166;28;20183;-77
2022/01/14 04:09:36;;;;;;;33.58;8.55;;;1.70;1.00;;;;;;5062061;28;20643;-77
2022/01/14 04:12:04;;;;;;;23.77;8.65;;;1.80;1.00;;;;;;5061110;28;20187;-77
2022/01/14 04:17:15;;;;;;;14.73;8.35;;;1.80;1.00;;;;;;5061029;28;20188;-77
2022/01/14 04:19:41;;;;;;;39.30;8.45;;;1.70;1.00;;;;;;5060333;28;20186;-77
2022/01/14 04:22:09;;;;;;;12.33;7.27;;;1.70;1.00;;;;;;5060590;28;20208;-77
2022/01/14 04:24:39;;;;;;;11.02;6.43;;;1.70;1.00;;;;;;5067475;28;20675;-77
2022/01/14 04:27:09;;;;;;;15.52;6.70;;;1.70;1.00;;;;;;5053335;28;20634;-77
2022/01/14 04:29:39;;;;;;;21.85;7.00;;;1.80;1.00;;;;;;5065535;28;20533;-77
2022/01/14 04:32:09;;;;;;;50.92;7.03;;;1.70;1.00;;;;;;5067777;28;20186;-77
2022/01/14 04:34:51;;;;;;;20.13;5.80;;;1.70;1.00;;;;;;5063378;28;20644;-77
2022/01/14 04:37:27;;;;;;;15.70;6.13;;;1.70;1.00;;;;;;5060892;28;20183;-77
2022/01/14 04:39:53;;;;;;;19.00;5.95;;;1.70;1.00;;;;;;5061946;28;20183;-77
2022/01/14 04:42:22;;;;;;;19.70;7.27;;;1.70;1.00;;;;;;5067781;28;20219;-77
2022/01/14 04:45:10;;;;;;;29.33;7.00;;;1.60;1.00;;;;;;5067110;28;20168;-77
2022/01/14 04:47:45;;;;;;;11.57;6.30;;;1.60;1.00;;;;;;5053262;28;20171;-77
2022/01/14 04:50:27;;;;;;;12.70;6.55;;;1.60;1.00;;;;;;5056375;28;20171;-77
2022/01/14 04:52:53;;;;;;;28.05;6.55;;;1.60;1.00;;;;;;5066552;28;20803;-77
2022/01/14 04:55:39;;;;;;;27.55;7.57;;;1.50;1.00;;;;;;5065150;28;20255;-77
2022/01/14 04:58:15;;;;;;;16.05;7.88;;;1.50;1.00;;;;;;5059243;28;20642;-77
2022/01/14 05:00:57;;;;;;;10.25;6.45;;;1.50;1.00;;;;;;5063571;28;20494;-77
2022/01/14 05:03:24;;;;;;;45.58;7.32;;;1.60;1.00;;;;;;5067491;28;20210;-74
2022/01/14 05:05:55;;;;;;;22.13;6.60;;;1.60;1.00;;;;;;5059886;28;20180;-74
2022/01/14 05:08:28;;;;;;;47.33;7.25;;;1.50;1.00;;;;;;5053433;28;20172;-74
2022/01/14 05:13:24;;;;;;;13.20;6.13;;;1.40;1.00;;;;;;5061559;28;20243;-74
2022/01/14 05:15:51;;;;;;;15.95;6.93;;;1.40;1.00;;;;;;5059904;28;20537;-74
2022/01/14 05:18:27;;;;;;;40.95;7.18;;;1.40;1.00;;;;;;5069281;28;20187;-77
2022/01/14 05:20:53;;;;;;;16.50;7.80;;;1.40;1.00;;;;;;5060198;28;20491;-77
2022/01/14 05:23:27;;;;;;;18.77;7.80;;;1.50;1.00;;;;;;5064103;28;20612;-77
2022/01/14 05:26:21;;;;;;;14.98;7.20;;;1.40;1.00;;;;;;5070601;28;20183;-77
2022/01/14 05:28:46;;;;;;;12.55;6.70;;;1.40;1.00;;;;;;5060002;28;20270;-77
2022/01/14 05:31:15;;;;;;;12.10;7.00;;;1.40;1.00;;;;;;5059875;28;20263;-77
2022/01/14 05:33:42;;;;;;;14.30;7.35;;;1.40;1.00;;;;;;5060040;28;20171;-74
2022/01/14 05:36:09;;;;;;;13.57;6.82;;;1.40;1.00;;;;;;5065497;28;20168;-75
2022/01/14 05:38:39;;;;;;;15.25;7.90;;;1.50;1.00;;;;;;5068065;28;20211;-75
2022/01/14 05:41:05;;;;;;;16.50;6.95;;;1.60;1.00;;;;;;5064641;28;20666;-75
2022/01/14 05:43:30;;;;;;;13.93;6.80;;;1.60;1.00;;;;;;5068689;28;20191;-74
2022/01/14 05:45:57;;;;;;;10.43;6.17;;;1.60;1.00;;;;;;5067908;28;20179;-74
2022/01/14 05:48:33;;;;;;;11.40;5.43;;;1.60;1.00;;;;;;5074768;28;20586;-75
2022/01/14 05:51:00;;;;;;;12.60;6.15;;;1.50;1.00;;;;;;5076032;28;20212;-74
2022/01/14 05:53:26;;;;;;;12.10;6.00;;;1.50;1.00;;;;;;5070634;28;20647;-75
2022/01/14 05:55:55;;;;;;;12.25;6.60;;;1.40;1.00;;;;;;5056603;28;20199;-75
2022/01/14 05:58:22;;;;;;;12.25;6.95;;;1.40;1.00;;;;;;5070602;28;20187;-74
2022/01/14 06:00:48;;;;;;;11.27;6.78;;;1.40;1.00;;;;;;5057125;28;20225;-74
2022/01/14 06:03:23;;;;;;;22.75;7.40;;;1.40;1.00;;;;;;5061036;28;20564;-75
2022/01/14 06:05:52;;;;;;;13.60;6.88;;;;;;;;;;5063014;28;20262;-75
2022/01/14 06:08:24;;;;;;;13.50;6.60;;;1.40;1.00;;;;;;5062739;28;20531;-76
2022/01/14 06:10:51;;;;;;;17.20;6.22;;;;;;;;;;5060319;28;20183;-74
2022/01/14 06:13:17;;;;;;;14.88;6.63;;;1.40;1.00;;;;;;5058548;28;20205;-76
2022/01/14 06:15:43;;;;;;;12.85;6.60;;;1.40;1.00;;;;;;5062752;28;20176;-75
2022/01/14 06:18:15;;;;;;;12.43;7.25;;;1.50;1.00;;;;;;5056255;28;20230;-75
2022/01/14 06:20:46;;;;;;;18.58;6.85;;;1.50;1.00;;;;;;5060512;28;20262;-76
2022/01/14 06:23:45;;;;;;;16.15;7.00;;;1.50;1.00;;;;;;5069075;28;20262;-77
2022/01/14 06:26:10;;;;;;;21.15;6.82;;;1.40;1.00;;;;;;5057206;28;20184;-77
2022/01/14 06:28:42;;;;;;;15.53;7.40;;;1.30;1.00;;;;;;5060466;28;20180;-77
2022/01/14 06:31:09;;;;;;;20.85;7.45;;;1.30;1.00;;;;;;5065634;28;20636;-77
2022/01/14 06:33:39;;;;;;;12.65;6.60;;;1.40;1.00;;;;;;5060443;28;20233;-74
2022/01/14 06:36:05;;;;;;;18.85;7.43;;;1.40;1.00;;;;;;5065779;28;20257;-76
2022/01/14 06:38:31;;;;;;;13.77;6.57;;;1.40;1.00;;;;;;5071298;28;20256;-77
2022/01/14 06:40:58;;;;;;;13.50;6.23;;;1.40;1.00;;;;;;5068841;28;20254;-76
2022/01/14 06:43:39;;;;;;;12.18;6.70;;;1.40;1.00;;;;;;5071001;28;20544;-77
2022/01/14 06:46:05;;;;;;;23.85;6.95;;;1.50;1.00;;;;;;5061221;28;20191;-77
2022/01/14 06:48:34;;;;;;;13.07;6.30;;;1.40;1.00;;;;;;5063062;28;20189;-76
2022/01/14 06:51:00;;;;;;;20.35;6.50;;;1.40;1.00;;;;;;5067451;28;20830;-75
2022/01/14 06:53:26;;;;;;;12.57;7.10;;;1.40;1.00;;;;;;5055836;28;20176;-75
2022/01/14 06:55:52;;;;;;;12.90;6.83;;;1.40;1.00;;;;;;5066916;28;20290;-74
2022/01/14 06:58:17;;;;;;;13.70;6.17;;;1.40;1.00;;;;;;5060879;28;20558;-75
2022/01/14 07:00:45;;;;;;;12.77;6.63;;;1.40;1.00;;;;;;5060189;28;20176;-75
2022/01/14 07:03:21;;;;;;;10.38;5.88;;;1.40;1.00;;;;;;5056154;28;20442;-75
2022/01/14 07:05:51;;;;;;;12.43;6.00;;;1.40;1.00;;;;;;5077272;28;20597;-78
2022/01/14 07:08:27;;;;;;;12.02;5.50;;;1.50;1.00;;;;;;5069396;28;20190;-77
2022/01/14 07:11:04;;;;;;;10.20;5.30;;;1.40;1.00;;;;;;5065144;28;20175;-77
2022/01/14 07:13:29;;;;;;;8.00;4.57;;;1.40;1.00;;;;;;5062561;28;20196;-77
2022/01/14 07:15:55;;;;;;;11.27;5.27;;;1.40;1.00;;;;;;5054756;28;20244;-77
2022/01/14 07:18:33;;;;;;;8.63;4.63;;;1.40;1.00;;;;;;5055812;28;20402;-77
2022/01/14 07:20:59;;;;;;;9.77;5.22;;;1.50;1.00;;;;;;5065442;28;20676;-77
2022/01/14 07:23:25;;;;;;;11.57;5.20;;;;;;;;;;5062192;28;20207;-76
2022/01/14 07:25:51;;;;;;;5.30;3.80;;;;;;;;;;5064830;28;20421;-77
2022/01/14 07:28:19;;;;;;;15.82;4.90;;;1.30;1.00;;;;;;5062823;28;20289;-77
2022/01/14 07:30:45;;;;;;;9.50;5.20;;;1.20;1.00;;;;;;5055049;28;20566;-77
2022/01/14 07:33:10;;;;;;;7.90;5.30;;;1.20;1.00;;;;;;5054945;28;20172;-77
2022/01/14 07:35:42;;;;;;;23.73;5.50;;;1.30;1.00;;;;;;5055461;28;20183;-77
2022/01/14 07:38:09;;;;;;;15.38;4.95;;;1.30;1.00;;;;;;5074505;28;20178;-77
2022/01/14 07:40:37;;;;;;;9.00;5.53;;;1.30;1.00;;;;;;5060765;28;20554;-77
2022/01/14 07:43:02;;;;;;;29.10;5.78;;;1.30;1.00;;;;;;5057299;28;20597;-77
2022/01/14 07:45:33;;;;;;;11.13;4.90;;;1.30;1.00;;;;;;5062521;28;20267;-77
2022/01/14 07:47:59;;;;;;;10.57;5.75;;;1.30;1.00;;;;;;5056131;28;20591;-77
2022/01/14 07:50:27;;;;;;;9.80;5.57;;;1.30;1.00;;;;;;5053003;28;20172;-77
2022/01/14 07:52:57;;;;;;;11.68;6.55;;;1.30;1.00;;;;;;5066986;28;20654;-77
2022/01/14 07:55:23;;;;;;;26.00;6.05;;;1.30;1.00;;;;;;5065760;28;20195;-77
2022/01/14 07:57:51;;;;;;;10.50;5.73;;;1.30;1.00;;;;;;5068091;28;20204;-77
2022/01/14 08:00:40;;;;;;;13.65;6.15;;;1.40;1.00;;;;;;5065266;28;20425;-78
2022/01/14 08:03:09;;;;;;;14.02;5.88;;;1.40;1.00;;;;;;5074863;28;20202;-77
2022/01/14 08:05:39;;;;;;;20.17;5.28;;;1.50;1.00;;;;;;5060490;28;20306;-77
2022/01/14 08:08:09;;;;;;;17.77;6.03;;;1.50;1.00;;;;;;5053892;28;20180;-77
2022/01/14 08:10:39;;;;;;;12.00;5.93;;;1.50;1.00;;;;;;5067695;28;20210;-77
2022/01/14 08:13:09;;;;;;;14.40;6.30;;;2.60;1.00;;;;;;5064217;28;20198;-77
2022/01/14 08:15:39;;;;;;;27.08;5.82;;;1.50;1.00;;;;;;5060966;28;20182;-77
2022/01/14 08:18:06;;;;;;;9.60;5.20;;;1.60;1.00;;;;;;5073604;28;20540;-77
2022/01/14 08:20:32;;;;;;;14.25;5.25;;;1.60;1.00;;;;;;5073767;28;20171;-77
2022/01/14 08:22:58;;;;;;;11.37;5.70;;;;;;;;;;5073766;28;20541;-77
2022/01/14 08:25:24;;;;;;;9.00;5.00;;;1.70;1.00;;;;;;5067446;28;20179;-77
2022/01/14 08:27:50;;;;;;;9.70;5.32;;;1.80;1.00;;;;;;5064023;28;20190;-78
2022/01/14 08:30:16;;;;;;;9.93;5.20;;;1.80;1.00;;;;;;5071454;28;20573;-78
2022/01/14 08:32:42;;;;;;;6.23;4.57;;;1.70;1.00;;;;;;5055789;28;20430;-77
2022/01/14 08:35:08;;;;;;;6.33;5.03;;;1.80;1.00;;;;;;5056746;28;20939;-75
2022/01/14 08:37:34;;;;;;;7.28;5.40;;;1.80;1.00;;;;;;5073194;28;20175;-75
2022/01/14 08:40:00;;;;;;;5.30;4.63;;;;;;;;;;5067954;28;20187;-75
2022/01/14 08:42:26;;;;;;;10.35;5.10;;;2.20;1.00;;;;;;5073098;28;20210;-75
2022/01/14 08:44:51;;;;;;;7.47;5.07;;;1.80;1.00;;;;;;5070444;28;20187;-75
2022/01/14 08:47:17;;;;;;;9.23;5.30;;;1.90;1.00;;;;;;5052585;28;20602;-75
2022/01/14 08:49:43;;;;;;;12.53;5.63;;;1.80;1.00;;;;;;5070961;28;20301;-76
2022/01/14 08:52:11;;;;;;;14.55;5.93;;;1.70;1.00;;;;;;5064809;28;20192;-76
2022/01/14 08:54:37;;;;;;;8.35;5.38;;;1.80;1.00;;;;;;5065629;28;20202;-78
2022/01/14 08:57:03;;;;;;;9.27;5.73;;;1.80;1.00;;;;;;5057628;28;20183;-77
2022/01/14 08:59:32;;;;;;;9.63;5.93;;;1.80;1.00;;;;;;5069720;28;20186;-77
2022/01/14 09:01:58;;;;;;;7.90;5.35;;;1.80;1.00;;;;;;5071153;28;20453;-77
2022/01/14 09:04:26;;;;;;;8.50;5.53;;;1.80;1.00;;;;;;5060432;28;20553;-77
2022/01/14 09:06:51;;;;;;;7.25;5.25;;;1.80;1.00;;;;;;5065520;28;20167;-77
2022/01/14 09:09:17;;;;;;;8.80;5.90;;;1.80;1.00;;;;;;5071212;28;20178;-77
2022/01/14 09:11:43;;;;;;;8.70;6.00;;;1.90;1.00;;;;;;5071218;28;20175;-77
2022/01/14 09:14:09;;;;;;;7.82;4.97;;;;;;;;;;5060267;28;20817;-77
2022/01/14 09:16:36;;;;;;;10.00;5.65;;;1.80;1.00;;;;;;5065396;28;20182;-77
2022/01/14 09:19:02;;;;;;;12.57;6.32;;;;;;;;;;5067710;28;20276;-77
2022/01/14 09:21:28;;;;;;;10.45;5.90;;;1.80;1.00;;;;;;5072921;28;20281;-77
2022/01/14 09:24:08;;;;;;;11.43;5.80;;;1.80;1.00;;;;;;5074472;28;20265;-77
2022/01/14 09:26:36;;;;;;;9.38;5.82;;;2.00;1.00;;;;;;5075443;28;20427;-77
2022/01/14 09:29:03;;;;;;;9.23;5.82;;;1.90;1.00;;;;;;5064264;28;20210;-77
2022/01/14 09:31:29;;;;;;;10.57;6.00;;;1.90;1.00;;;;;;5049139;28;20306;-77
2022/01/14 09:33:55;;;;;;;9.70;6.20;;;2.00;1.00;;;;;;5059137;28;20221;-77
2022/01/14 09:36:20;;;;;;;10.90;6.57;;;2.00;1.00;;;;;;5062384;28;20190;-75
2022/01/14 09:38:46;;;;;;;14.37;6.67;;;2.10;1.00;;;;;;5065252;28;20190;-75
2022/01/14 09:41:13;;;;;;;9.68;6.30;;;2.20;1.00;;;;;;5060346;28;20229;-75
2022/01/14 09:43:39;;;;;;;12.88;7.20;;;2.20;1.00;;;;;;5064360;28;20234;-75
2022/01/14 09:46:08;;;;;;;11.67;6.57;;;2.20;1.00;;;;;;5065192;28;20203;-75
2022/01/14 09:48:35;;;;;;;22.92;8.25;;;2.20;1.00;;;;;;5056313;28;20513;-75
2022/01/14 09:51:01;;;;;;;11.40;6.07;;;2.00;1.00;;;;;;5069421;28;20240;-75
2022/01/14 09:53:28;;;;;;;15.10;8.15;;;2.10;1.00;;;;;;5057614;28;20191;-75
2022/01/14 09:55:54;;;;;;;15.73;8.25;;;2.30;1.00;;;;;;5066347;28;20250;-75
2022/01/14 09:58:23;;;;;;;12.27;7.93;;;2.10;1.00;;;;;;5074751;28;20195;-75
2022/01/14 10:00:49;;;;;;;17.63;8.57;;;;;;;;;;5065051;28;20418;-75
2022/01/14 10:03:22;;;;;;;17.45;9.20;;;2.30;1.00;;;;;;5064503;28;20199;-75
2022/01/14 10:05:51;;;;;;;18.83;8.57;;;2.30;1.00;;;;;;5076266;28;20210;-77
2022/01/14 10:08:24;;;;;;;18.05;8.60;;;2.40;1.00;;;;;;5076151;28;20204;-77
2022/01/14 10:10:59;;;;;;;17.90;7.72;;;2.50;1.00;;;;;;5062482;28;20187;-77
2022/01/14 10:13:28;;;;;;;14.45;7.65;;;2.50;1.00;;;;;;5075870;28;20175;-77
2022/01/14 10:16:04;;;;;;;15.00;8.32;;;2.60;1.00;;;;;;5071955;28;20175;-77
2022/01/14 10:18:32;;;;;;;16.42;7.47;;;2.60;1.00;;;;;;5068796;28;20194;-77
2022/01/14 10:21:01;;;;;;;15.98;8.65;;;2.70;1.00;;;;;;5058334;28;20193;-75
2022/01/14 10:23:43;;;;;;;10.57;6.32;;;2.70;1.00;;;;;;5058754;28;20555;-75
2022/01/14 10:26:09;;;;;;;14.45;7.93;;;2.80;1.00;;;;;;5065428;28;20171;-75
2022/01/14 10:28:35;;;;;;;15.15;7.85;;;2.80;1.00;;;;;;5055494;28;20168;-75
2022/01/14 10:31:01;;;;;;;16.15;8.77;;;;;;;;;;5055142;28;20535;-75
2022/01/14 10:33:29;;;;;;;13.10;6.63;;;2.90;1.00;;;;;;5056491;28;20261;-75
2022/01/14 10:35:58;;;;;;;15.48;8.00;;;3.00;1.00;;;;;;5045903;28;20180;-77
2022/01/14 10:38:26;;;;;;;16.58;9.00;;;3.00;1.00;;;;;;5062157;28;20178;-77
2022/01/14 10:40:54;;;;;;;9.32;5.72;;;3.10;1.00;;;;;;5064298;28;20187;-77
2022/01/14 10:43:22;;;;;;;10.55;5.97;;;3.00;1.00;;;;;;5073416;28;20249;-77
2022/01/14 10:45:50;;;;;;;13.82;6.70;;;3.10;1.00;;;;;;5065989;28;20215;-77
2022/01/14 10:48:28;;;;;;;11.60;6.68;;;3.20;1.00;;;;;;5073582;28;20171;-77
2022/01/14 10:50:54;;;;;;;14.55;7.15;;;;;;;;;;5075039;28;20175;-77
2022/01/14 10:53:34;;;;;;;13.50;7.27;;;3.20;1.00;;;;;;5075754;28;20197;-77
2022/01/14 10:56:07;;;;;;;17.15;8.73;;;3.30;1.00;;;;;;5066880;28;20550;-77
2022/01/14 10:58:39;;;;;;;10.07;5.93;;;3.30;1.00;;;;;;5073701;28;20237;-77
2022/01/14 11:01:15;;;;;;;17.10;7.13;;;3.30;1.00;;;;;;5074945;28;20186;-77
2022/01/14 11:03:44;;;;;;;15.50;7.22;;;3.40;1.00;;;;;;5075069;28;20198;-77
2022/01/14 11:06:25;;;;;;;11.68;6.80;;;3.30;1.00;;;;;;5075342;28;20248;-76
2022/01/14 11:09:00;;;;;;;11.88;6.68;;;3.40;1.00;;;;;;5061256;28;20167;-75
2022/01/14 11:11:31;;;;;;;13.07;6.65;;;3.30;1.00;;;;;;5074842;28;20688;-75
2022/01/14 11:13:57;;;;;;;13.38;6.53;;;3.40;1.00;;;;;;5074629;28;20261;-75
2022/01/14 11:16:23;;;;;;;10.43;6.13;;;3.30;1.00;;;;;;5074919;28;20179;-75
2022/01/14 11:18:50;;;;;;;12.10;6.32;;;3.30;1.00;;;;;;5074644;28;20187;-75
2022/01/14 11:24:05;;;;;;;9.70;6.18;;;2.90;1.00;;;;;;5074779;28;20213;-77
2022/01/14 11:26:35;;;;;;;12.00;5.78;;;2.90;1.00;;;;;;5074616;28;20183;-76
2022/01/14 11:29:15;;;;;;;11.68;6.72;;;3.00;1.00;;;;;;5074274;28;20548;-77
2022/01/14 11:31:42;;;;;;;13.25;5.25;;;2.90;1.00;;;;;;5053411;28;20207;-77
2022/01/14 11:34:27;;;;;;;12.95;6.90;;;2.80;1.00;;;;;;5073223;28;20187;-77
2022/01/14 11:36:59;;;;;;;14.65;7.00;;;2.80;1.00;;;;;;5090223;28;20191;-76
2022/01/14 11:39:31;;;;;;;9.70;6.30;;;2.70;1.00;;;;;;5073913;28;20179;-77
2022/01/14 11:41:59;;;;;;;11.75;6.70;;;2.80;1.00;;;;;;5059980;28;20235;-77
2022/01/14 11:44:56;;;;;;;10.48;5.63;;;2.70;1.00;;;;;;5069681;28;20171;-77
2022/01/14 11:47:25;;;;;;;14.00;8.43;;;2.70;1.00;;;;;;5089140;28;20175;-77
2022/01/14 11:49:56;;;;;;;17.77;8.40;;;2.70;1.00;;;;;;5047422;28;20167;-77
2022/01/14 11:52:42;;;;;;;14.88;8.35;;;2.70;1.00;;;;;;5074245;28;20711;-77
2022/01/14 11:55:30;;;;;;;13.88;7.47;;;2.80;1.00;;;;;;5071641;28;20198;-77
2022/01/14 11:58:02;;;;;;;9.63;5.85;;;2.80;1.00;;;;;;5011905;28;20200;-77
2022/01/14 12:00:30;;;;;;;16.00;7.18;;;2.90;1.00;;;;;;5011981;28;20216;-77
2022/01/14 12:03:16;;;;;;;12.05;6.88;;;2.80;1.00;;;;;;5011990;28;20236;-77
2022/01/14 12:05:50;;;;;;;18.65;9.57;;;2.80;1.00;;;;;;5011847;28;20263;-77
2022/01/14 12:08:19;;;;;;;16.25;8.60;;;3.00;1.00;;;;;;5012173;28;20197;-77
2022/01/14 12:10:52;;;;;;;18.35;9.35;;;3.10;1.00;;;;;;5011819;28;20211;-77
2022/01/14 12:16:07;;;;;;;16.08;8.05;;;3.30;1.00;;;;;;5011830;28;20189;-77
2022/01/14 12:19:00;;;;;;;14.23;7.95;;;3.30;1.00;;;;;;5011610;28;20189;-77
2022/01/14 12:21:40;;;;;;;19.50;8.13;;;3.30;1.00;;;;;;5011628;28;20251;-77
2022/01/14 12:24:15;;;;;;;23.42;8.90;;;3.40;1.00;;;;;;5011911;28;20235;-76
2022/01/14 12:26:42;;;;;;;20.10;7.80;;;3.40;1.00;;;;;;5011383;28;20185;-75
2022/01/14 12:29:10;;;;;;;17.65;8.27;;;3.40;1.00;;;;;;5011143;28;20185;-75
2022/01/14 12:32:13;;;;;;;14.13;7.50;;;3.60;1.00;;;;;;5013723;28;20195;-75
2022/01/14 12:34:40;;;;;;;15.27;8.30;;;3.60;1.00;;;;;;5046890;28;20237;-75
2022/01/14 12:37:21;;;;;;;27.55;9.00;;;3.60;1.00;;;;;;5073427;28;20288;-75
2022/01/14 12:39:49;;;;;;;18.70;8.35;;;3.60;1.00;;;;;;5073081;28;20678;-75
2022/01/14 12:42:14;;;;;;;30.77;10.38;;;3.70;1.00;;;;;;5056534;28;20203;-75
2022/01/14 12:44:40;;;;;;;14.50;8.37;;;3.80;1.00;;;;;;5070837;28;20179;-75
2022/01/14 12:47:09;;;;;;;14.70;8.17;;;3.90;1.00;;;;;;5071918;28;20179;-75
2022/01/14 12:49:36;;;;;;;26.17;8.07;;;3.80;1.00;;;;;;5072864;28;20424;-75
2022/01/14 12:52:09;;;;;;;17.00;8.27;;;3.80;1.00;;;;;;5072780;28;20175;-75
2022/01/14 12:54:41;;;;;;;18.50;8.20;;;3.90;1.00;;;;;;5072842;28;20575;-77
2022/01/14 12:57:07;;;;;;;20.88;8.57;;;3.90;1.00;;;;;;5067190;28;20753;-77
2022/01/14 12:59:41;;;;;;;27.67;11.65;;;3.90;1.00;;;;;;5072897;28;20611;-77
2022/01/14 13:02:07;;;;;;;18.70;9.57;;;3.80;1.00;;;;;;5072876;28;20208;-77
2022/01/14 13:04:33;;;;;;;18.00;8.63;;;4.80;1.00;;;;;;5073139;28;20183;-77
2022/01/14 13:07:03;;;;;;;15.67;8.37;;;3.70;1.00;;;;;;5071631;28;20452;-77
2022/01/14 13:09:31;;;;;;;17.00;8.90;;;3.60;1.00;;;;;;5073139;28;20454;-77
2022/01/14 13:11:59;;;;;;;20.25;9.90;;;3.60;1.00;;;;;;5059511;28;20754;-77
2022/01/14 13:14:48;;;;;;;23.40;9.10;;;3.70;1.00;;;;;;5073290;28;20217;-77
2022/01/14 13:17:23;;;;;;;23.23;10.02;;;3.80;1.00;;;;;;5072905;28;20548;-77
2022/01/14 13:19:49;;;;;;;18.92;9.15;;;;;;;;;;5060161;28;20205;-77
2022/01/14 13:22:18;;;;;;;21.53;9.67;;;3.50;1.00;;;;;;5072608;28;20611;-77
2022/01/14 13:25:01;;;;;;;19.60;8.85;;;3.50;1.00;;;;;;5059180;28;20466;-77
2022/01/14 13:27:30;;;;;;;20.57;9.40;;;3.50;1.00;;;;;;5051747;28;20187;-77
2022/01/14 13:30:00;;;;;;;21.90;9.75;;;3.50;1.00;;;;;;5058273;28;20765;-78
2022/01/14 13:32:33;;;;;;;20.08;10.20;;;3.50;1.00;;;;;;5054683;28;20270;-77
2022/01/14 13:35:20;;;;;;;20.88;9.05;;;3.60;1.00;;;;;;5045777;28;20256;-77
2022/01/14 13:37:55;;;;;;;19.35;8.68;;;3.60;1.00;;;;;;5049356;28;20187;-74
2022/01/14 13:40:27;;;;;;;16.85;8.50;;;3.70;1.00;;;;;;5065552;28;20517;-75
2022/01/14 13:43:09;;;;;;;14.13;8.02;;;3.70;1.00;;;;;;5053293;28;20602;-75
2022/01/14 13:45:45;;;;;;;15.95;9.43;;;3.70;1.00;;;;;;5039284;28;20175;-74
2022/01/14 13:48:25;;;;;;;20.92;9.45;;;3.70;1.00;;;;;;5059651;28;20175;-74
2022/01/14 13:51:11;;;;;;;23.35;9.32;;;3.60;1.00;;;;;;5064284;28;20510;-75
2022/01/14 13:53:52;;;;;;;21.10;10.45;;;3.60;1.00;;;;;;5065176;28;20179;-77